sensor_id;sensor_type;location;lat;lon;timestamp;P1;durP1;ratioP1;P2;durP2;ratioP2
11171;SDS011;5642;50.830;12.082;2022-11-04T00:02:05;2.33;;;1.95;;
11171;SDS011;5642;50.830;12.082;2022-11-04T00:04:31;2.10;;;1.67;;
11171;SDS011;5642;50.830;12.082;2022-11-04T00:06:58;2.17;;;1.83;;
11171;SDS011;5642;50.830;12.082;2022-11-04T00:09:26;2.13;;;1.83;;
11171;SDS011;5642;50.830;12.082;2022-11-04T00:11:53;2.75;;;1.70;;
11171;SDS011;5642;50.830;12.082;2022-11-04T00:14:40;2.03;;;1.90;;
11171;SDS011;5642;50.830;12.082;2022-11-04T00:17:10;2.03;;;1.80;;
11171;SDS011;5642;50.830;12.082;2022-11-04T00:19:50;1.92;;;1.73;;
11171;SDS011;5642;50.830;12.082;2022-11-04T00:22:37;2.13;;;1.58;;
11171;SDS011;5642;50.830;12.082;2022-11-04T00:25:32;2.13;;;1.58;;
11171;SDS011;5642;50.830;12.082;2022-11-04T00:28:17;1.70;;;1.60;;
11171;SDS011;5642;50.830;12.082;2022-11-04T00:31:16;2.78;;;1.70;;
11171;SDS011;5642;50.830;12.082;2022-11-04T00:34:02;2.20;;;1.90;;
11171;SDS011;5642;50.830;12.082;2022-11-04T00:36:29;2.03;;;1.67;;
11171;SDS011;5642;50.830;12.082;2022-11-04T00:38:57;2.17;;;1.98;;
11171;SDS011;5642;50.830;12.082;2022-11-04T00:41:23;1.88;;;1.77;;
11171;SDS011;5642;50.830;12.082;2022-11-04T00:43:53;2.42;;;1.80;;
11171;SDS011;5642;50.830;12.082;2022-11-04T00:46:28;2.15;;;1.95;;
11171;SDS011;5642;50.830;12.082;2022-11-04T00:48:56;2.08;;;1.80;;
11171;SDS011;5642;50.830;12.082;2022-11-04T00:51:22;2.72;;;2.05;;
11171;SDS011;5642;50.830;12.082;2022-11-04T00:53:49;2.25;;;2.05;;
11171;SDS011;5642;50.830;12.082;2022-11-04T00:56:16;2.75;;;2.40;;
11171;SDS011;5642;50.830;12.082;2022-11-04T00:58:43;2.08;;;1.90;;
11171;SDS011;5642;50.830;12.082;2022-11-04T01:01:11;2.22;;;2.00;;
11171;SDS011;5642;50.830;12.082;2022-11-04T01:03:44;2.22;;;2.03;;
11171;SDS011;5642;50.830;12.082;2022-11-04T01:06:10;2.30;;;2.08;;
11171;SDS011;5642;50.830;12.082;2022-11-04T01:08:37;3.70;;;2.20;;
11171;SDS011;5642;50.830;12.082;2022-11-04T01:11:05;2.65;;;2.17;;
11171;SDS011;5642;50.830;12.082;2022-11-04T01:13:34;2.20;;;2.00;;
11171;SDS011;5642;50.830;12.082;2022-11-04T01:16:02;2.08;;;1.95;;
11171;SDS011;5642;50.830;12.082;2022-11-04T01:18:31;2.80;;;2.08;;
11171;SDS011;5642;50.830;12.082;2022-11-04T01:21:04;2.67;;;1.88;;
11171;SDS011;5642;50.830;12.082;2022-11-04T01:23:40;2.20;;;2.00;;
11171;SDS011;5642;50.830;12.082;2022-11-04T01:26:08;2.15;;;1.98;;
11171;SDS011;5642;50.830;12.082;2022-11-04T01:28:37;1.70;;;1.60;;
11171;SDS011;5642;50.830;12.082;2022-11-04T01:31:05;2.92;;;1.90;;
11171;SDS011;5642;50.830;12.082;2022-11-04T01:33:35;2.38;;;2.17;;
11171;SDS011;5642;50.830;12.082;2022-11-04T01:36:02;2.10;;;1.90;;
11171;SDS011;5642;50.830;12.082;2022-11-04T01:38:31;1.70;;;1.60;;
11171;SDS011;5642;50.830;12.082;2022-11-04T01:40:58;2.40;;;2.10;;
11171;SDS011;5642;50.830;12.082;2022-11-04T01:46:15;2.08;;;1.88;;
11171;SDS011;5642;50.830;12.082;2022-11-04T01:49:05;2.55;;;1.85;;
11171;SDS011;5642;50.830;12.082;2022-11-04T01:51:56;2.00;;;1.90;;
11171;SDS011;5642;50.830;12.082;2022-11-04T01:54:27;3.38;;;2.00;;
11171;SDS011;5642;50.830;12.082;2022-11-04T01:56:55;2.28;;;1.80;;
11171;SDS011;5642;50.830;12.082;2022-11-04T01:59:25;2.03;;;1.83;;
11171;SDS011;5642;50.830;12.082;2022-11-04T02:01:55;2.22;;;2.03;;
11171;SDS011;5642;50.830;12.082;2022-11-04T02:04:21;2.13;;;1.92;;
11171;SDS011;5642;50.830;12.082;2022-11-04T02:07:01;2.15;;;1.95;;
11171;SDS011;5642;50.830;12.082;2022-11-04T02:09:31;1.75;;;1.65;;
11171;SDS011;5642;50.830;12.082;2022-11-04T02:11:59;1.80;;;1.70;;
11171;SDS011;5642;50.830;12.082;2022-11-04T02:14:45;2.03;;;1.80;;
11171;SDS011;5642;50.830;12.082;2022-11-04T02:27:35;2.10;;;1.90;;
11171;SDS011;5642;50.830;12.082;2022-11-04T02:30:18;2.88;;;2.00;;
11171;SDS011;5642;50.830;12.082;2022-11-04T02:35:41;2.42;;;2.15;;
11171;SDS011;5642;50.830;12.082;2022-11-04T02:38:19;2.17;;;1.88;;
11171;SDS011;5642;50.830;12.082;2022-11-04T02:41:08;2.80;;;2.05;;
11171;SDS011;5642;50.830;12.082;2022-11-04T02:49:11;2.53;;;2.15;;
11171;SDS011;5642;50.830;12.082;2022-11-04T02:51:50;2.58;;;2.10;;
11171;SDS011;5642;50.830;12.082;2022-11-04T02:54:32;2.63;;;2.00;;
11171;SDS011;5642;50.830;12.082;2022-11-04T02:57:10;2.08;;;1.88;;
11171;SDS011;5642;50.830;12.082;2022-11-04T03:02:35;2.30;;;2.00;;
11171;SDS011;5642;50.830;12.082;2022-11-04T03:05:05;2.42;;;2.22;;
11171;SDS011;5642;50.830;12.082;2022-11-04T03:07:38;4.07;;;2.40;;
11171;SDS011;5642;50.830;12.082;2022-11-04T03:10:13;2.65;;;2.22;;
11171;SDS011;5642;50.830;12.082;2022-11-04T03:12:46;2.60;;;2.40;;
11171;SDS011;5642;50.830;12.082;2022-11-04T03:15:21;2.47;;;2.25;;
11171;SDS011;5642;50.830;12.082;2022-11-04T03:20:47;2.28;;;2.03;;
11171;SDS011;5642;50.830;12.082;2022-11-04T03:23:16;2.30;;;2.10;;
11171;SDS011;5642;50.830;12.082;2022-11-04T03:25:43;2.20;;;2.00;;
11171;SDS011;5642;50.830;12.082;2022-11-04T03:28:14;2.03;;;1.90;;
11171;SDS011;5642;50.830;12.082;2022-11-04T03:30:51;3.20;;;1.98;;
11171;SDS011;5642;50.830;12.082;2022-11-04T03:33:25;1.90;;;1.70;;
11171;SDS011;5642;50.830;12.082;2022-11-04T03:35:59;2.08;;;1.88;;
11171;SDS011;5642;50.830;12.082;2022-11-04T03:38:28;2.03;;;1.67;;
11171;SDS011;5642;50.830;12.082;2022-11-04T03:40:54;1.75;;;1.63;;
11171;SDS011;5642;50.830;12.082;2022-11-04T03:43:25;2.17;;;1.90;;
11171;SDS011;5642;50.830;12.082;2022-11-04T03:46:09;1.65;;;1.42;;
11171;SDS011;5642;50.830;12.082;2022-11-04T03:48:35;1.70;;;1.60;;
11171;SDS011;5642;50.830;12.082;2022-11-04T03:51:01;1.30;;;1.20;;
11171;SDS011;5642;50.830;12.082;2022-11-04T03:53:27;1.52;;;1.42;;
11171;SDS011;5642;50.830;12.082;2022-11-04T04:01:47;1.50;;;1.40;;
11171;SDS011;5642;50.830;12.082;2022-11-04T04:07:03;1.40;;;1.30;;
11171;SDS011;5642;50.830;12.082;2022-11-04T04:09:54;1.25;;;1.15;;
11171;SDS011;5642;50.830;12.082;2022-11-04T04:12:29;1.40;;;1.30;;
11171;SDS011;5642;50.830;12.082;2022-11-04T04:15:07;1.08;;;1.08;;
11171;SDS011;5642;50.830;12.082;2022-11-04T04:17:42;1.50;;;1.40;;
11171;SDS011;5642;50.830;12.082;2022-11-04T04:20:19;1.40;;;1.30;;
11171;SDS011;5642;50.830;12.082;2022-11-04T04:22:50;1.52;;;1.42;;
11171;SDS011;5642;50.830;12.082;2022-11-04T04:25:20;1.42;;;1.33;;
11171;SDS011;5642;50.830;12.082;2022-11-04T04:28:08;1.35;;;1.25;;
11171;SDS011;5642;50.830;12.082;2022-11-04T04:30:37;1.50;;;1.40;;
11171;SDS011;5642;50.830;12.082;2022-11-04T04:33:11;1.10;;;1.10;;
11171;SDS011;5642;50.830;12.082;2022-11-04T04:35:42;1.13;;;1.02;;
11171;SDS011;5642;50.830;12.082;2022-11-04T04:38:20;1.30;;;1.20;;
11171;SDS011;5642;50.830;12.082;2022-11-04T04:41:26;2.25;;;1.27;;
11171;SDS011;5642;50.830;12.082;2022-11-04T04:44:26;1.27;;;1.23;;
11171;SDS011;5642;50.830;12.082;2022-11-04T04:47:13;1.17;;;1.17;;
11171;SDS011;5642;50.830;12.082;2022-11-04T04:49:50;1.98;;;1.30;;
11171;SDS011;5642;50.830;12.082;2022-11-04T04:52:16;1.50;;;1.40;;
11171;SDS011;5642;50.830;12.082;2022-11-04T04:54:44;1.55;;;1.30;;
11171;SDS011;5642;50.830;12.082;2022-11-04T04:57:10;1.27;;;1.17;;
11171;SDS011;5642;50.830;12.082;2022-11-04T04:59:36;1.30;;;1.23;;
11171;SDS011;5642;50.830;12.082;2022-11-04T05:02:02;1.48;;;1.38;;
11171;SDS011;5642;50.830;12.082;2022-11-04T05:04:28;1.40;;;1.30;;
11171;SDS011;5642;50.830;12.082;2022-11-04T05:06:55;1.58;;;1.48;;
11171;SDS011;5642;50.830;12.082;2022-11-04T05:09:21;1.42;;;1.33;;
11171;SDS011;5642;50.830;12.082;2022-11-04T05:11:47;1.30;;;1.20;;
11171;SDS011;5642;50.830;12.082;2022-11-04T05:14:13;1.40;;;1.30;;
11171;SDS011;5642;50.830;12.082;2022-11-04T05:16:39;1.30;;;1.20;;
11171;SDS011;5642;50.830;12.082;2022-11-04T05:19:05;1.30;;;1.20;;
11171;SDS011;5642;50.830;12.082;2022-11-04T05:21:31;1.95;;;1.20;;
11171;SDS011;5642;50.830;12.082;2022-11-04T05:23:57;1.33;;;1.23;;
11171;SDS011;5642;50.830;12.082;2022-11-04T05:26:23;1.48;;;1.38;;
11171;SDS011;5642;50.830;12.082;2022-11-04T05:28:50;1.75;;;1.38;;
11171;SDS011;5642;50.830;12.082;2022-11-04T05:31:16;1.50;;;1.40;;
11171;SDS011;5642;50.830;12.082;2022-11-04T05:33:42;1.23;;;1.23;;
11171;SDS011;5642;50.830;12.082;2022-11-04T05:36:14;1.40;;;1.30;;
11171;SDS011;5642;50.830;12.082;2022-11-04T05:38:41;1.58;;;1.48;;
11171;SDS011;5642;50.830;12.082;2022-11-04T05:41:08;1.58;;;1.48;;
11171;SDS011;5642;50.830;12.082;2022-11-04T05:43:51;2.08;;;1.50;;
11171;SDS011;5642;50.830;12.082;2022-11-04T05:46:17;1.35;;;1.25;;
11171;SDS011;5642;50.830;12.082;2022-11-04T05:48:43;1.40;;;1.30;;
11171;SDS011;5642;50.830;12.082;2022-11-04T05:51:20;1.60;;;1.40;;
11171;SDS011;5642;50.830;12.082;2022-11-04T05:53:48;1.10;;;1.10;;
11171;SDS011;5642;50.830;12.082;2022-11-04T05:56:14;1.58;;;1.45;;
11171;SDS011;5642;50.830;12.082;2022-11-04T05:58:41;2.53;;;1.25;;
11171;SDS011;5642;50.830;12.082;2022-11-04T06:03:51;1.58;;;1.48;;
11171;SDS011;5642;50.830;12.082;2022-11-04T06:06:18;1.60;;;1.50;;
11171;SDS011;5642;50.830;12.082;2022-11-04T06:08:45;1.52;;;1.40;;
11171;SDS011;5642;50.830;12.082;2022-11-04T06:11:12;1.30;;;1.27;;
11171;SDS011;5642;50.830;12.082;2022-11-04T06:13:38;1.60;;;1.50;;
11171;SDS011;5642;50.830;12.082;2022-11-04T06:16:04;1.30;;;1.20;;
11171;SDS011;5642;50.830;12.082;2022-11-04T06:18:30;1.50;;;1.40;;
11171;SDS011;5642;50.830;12.082;2022-11-04T06:21:06;1.60;;;1.50;;
11171;SDS011;5642;50.830;12.082;2022-11-04T06:23:47;1.73;;;1.63;;
11171;SDS011;5642;50.830;12.082;2022-11-04T06:26:13;1.45;;;1.35;;
11171;SDS011;5642;50.830;12.082;2022-11-04T06:28:40;1.42;;;1.33;;
11171;SDS011;5642;50.830;12.082;2022-11-04T06:31:07;1.55;;;1.45;;
11171;SDS011;5642;50.830;12.082;2022-11-04T06:33:34;1.60;;;1.50;;
11171;SDS011;5642;50.830;12.082;2022-11-04T06:36:01;1.60;;;1.50;;
11171;SDS011;5642;50.830;12.082;2022-11-04T06:38:30;1.63;;;1.52;;
11171;SDS011;5642;50.830;12.082;2022-11-04T06:40:57;1.58;;;1.48;;
11171;SDS011;5642;50.830;12.082;2022-11-04T06:43:23;1.50;;;1.40;;
11171;SDS011;5642;50.830;12.082;2022-11-04T06:45:53;2.70;;;1.77;;
11171;SDS011;5642;50.830;12.082;2022-11-04T06:48:20;1.90;;;1.80;;
11171;SDS011;5642;50.830;12.082;2022-11-04T06:50:51;2.05;;;1.85;;
11171;SDS011;5642;50.830;12.082;2022-11-04T06:53:17;2.03;;;1.92;;
11171;SDS011;5642;50.830;12.082;2022-11-04T06:55:43;2.13;;;1.92;;
11171;SDS011;5642;50.830;12.082;2022-11-04T06:58:10;2.00;;;1.83;;
11171;SDS011;5642;50.830;12.082;2022-11-04T07:00:36;4.68;;;1.92;;
11171;SDS011;5642;50.830;12.082;2022-11-04T07:03:02;1.95;;;1.63;;
11171;SDS011;5642;50.830;12.082;2022-11-04T07:05:28;1.45;;;1.35;;
11171;SDS011;5642;50.830;12.082;2022-11-04T07:07:57;2.08;;;1.58;;
11171;SDS011;5642;50.830;12.082;2022-11-04T07:10:24;1.63;;;1.52;;
11171;SDS011;5642;50.830;12.082;2022-11-04T07:12:50;1.85;;;1.73;;
11171;SDS011;5642;50.830;12.082;2022-11-04T07:15:16;1.67;;;1.58;;
11171;SDS011;5642;50.830;12.082;2022-11-04T07:17:43;1.63;;;1.45;;
11171;SDS011;5642;50.830;12.082;2022-11-04T07:20:09;1.77;;;1.30;;
11171;SDS011;5642;50.830;12.082;2022-11-04T07:22:38;1.75;;;1.65;;
11171;SDS011;5642;50.830;12.082;2022-11-04T07:25:12;2.30;;;1.80;;
11171;SDS011;5642;50.830;12.082;2022-11-04T07:27:38;2.13;;;2.03;;
11171;SDS011;5642;50.830;12.082;2022-11-04T07:30:05;2.08;;;1.90;;
11171;SDS011;5642;50.830;12.082;2022-11-04T07:32:31;1.70;;;1.60;;
11171;SDS011;5642;50.830;12.082;2022-11-04T07:34:58;1.70;;;1.60;;
11171;SDS011;5642;50.830;12.082;2022-11-04T07:37:23;1.80;;;1.70;;
11171;SDS011;5642;50.830;12.082;2022-11-04T07:39:50;1.67;;;1.58;;
11171;SDS011;5642;50.830;12.082;2022-11-04T07:42:19;1.40;;;1.30;;
11171;SDS011;5642;50.830;12.082;2022-11-04T07:44:45;1.48;;;1.38;;
11171;SDS011;5642;50.830;12.082;2022-11-04T07:47:12;1.60;;;1.38;;
11171;SDS011;5642;50.830;12.082;2022-11-04T07:49:38;2.53;;;1.60;;
11171;SDS011;5642;50.830;12.082;2022-11-04T07:52:04;1.90;;;1.60;;
11171;SDS011;5642;50.830;12.082;2022-11-04T07:54:30;1.70;;;1.55;;
11171;SDS011;5642;50.830;12.082;2022-11-04T07:56:56;1.65;;;1.55;;
11171;SDS011;5642;50.830;12.082;2022-11-04T07:59:22;1.40;;;1.30;;
11171;SDS011;5642;50.830;12.082;2022-11-04T08:01:51;1.38;;;1.27;;
11171;SDS011;5642;50.830;12.082;2022-11-04T08:04:18;1.38;;;1.27;;
11171;SDS011;5642;50.830;12.082;2022-11-04T08:06:44;1.13;;;1.10;;
11171;SDS011;5642;50.830;12.082;2022-11-04T08:09:11;1.30;;;1.20;;
11171;SDS011;5642;50.830;12.082;2022-11-04T08:11:37;1.27;;;1.13;;
11171;SDS011;5642;50.830;12.082;2022-11-04T08:14:03;1.08;;;1.08;;
11171;SDS011;5642;50.830;12.082;2022-11-04T08:16:30;1.10;;;1.00;;
11171;SDS011;5642;50.830;12.082;2022-11-04T08:18:56;0.90;;;0.90;;
11171;SDS011;5642;50.830;12.082;2022-11-04T08:21:28;1.00;;;0.90;;
11171;SDS011;5642;50.830;12.082;2022-11-04T08:23:55;0.70;;;0.70;;
11171;SDS011;5642;50.830;12.082;2022-11-04T08:26:21;0.85;;;0.85;;
11171;SDS011;5642;50.830;12.082;2022-11-04T08:28:51;0.50;;;0.50;;
11171;SDS011;5642;50.830;12.082;2022-11-04T08:33:45;0.70;;;0.70;;
11171;SDS011;5642;50.830;12.082;2022-11-04T08:36:13;0.60;;;0.60;;
11171;SDS011;5642;50.830;12.082;2022-11-04T08:38:44;0.77;;;0.77;;
11171;SDS011;5642;50.830;12.082;2022-11-04T08:41:13;0.80;;;0.80;;
11171;SDS011;5642;50.830;12.082;2022-11-04T08:43:41;0.70;;;0.70;;
11171;SDS011;5642;50.830;12.082;2022-11-04T08:46:08;0.77;;;0.77;;
11171;SDS011;5642;50.830;12.082;2022-11-04T08:48:38;1.70;;;0.80;;
11171;SDS011;5642;50.830;12.082;2022-11-04T08:51:09;0.50;;;0.50;;
11171;SDS011;5642;50.830;12.082;2022-11-04T08:53:37;0.68;;;0.68;;
11171;SDS011;5642;50.830;12.082;2022-11-04T08:56:11;0.60;;;0.60;;
11171;SDS011;5642;50.830;12.082;2022-11-04T08:58:42;0.60;;;0.60;;
11171;SDS011;5642;50.830;12.082;2022-11-04T09:01:08;1.30;;;0.90;;
11171;SDS011;5642;50.830;12.082;2022-11-04T09:03:38;0.57;;;0.57;;
11171;SDS011;5642;50.830;12.082;2022-11-04T09:06:06;0.60;;;0.60;;
11171;SDS011;5642;50.830;12.082;2022-11-04T09:08:35;0.70;;;0.70;;
11171;SDS011;5642;50.830;12.082;2022-11-04T09:11:05;0.70;;;0.70;;
11171;SDS011;5642;50.830;12.082;2022-11-04T09:13:32;0.60;;;0.60;;
11171;SDS011;5642;50.830;12.082;2022-11-04T09:15:59;0.60;;;0.60;;
11171;SDS011;5642;50.830;12.082;2022-11-04T09:18:25;0.73;;;0.73;;
11171;SDS011;5642;50.830;12.082;2022-11-04T09:20:51;0.70;;;0.70;;
11171;SDS011;5642;50.830;12.082;2022-11-04T09:23:17;0.60;;;0.60;;
11171;SDS011;5642;50.830;12.082;2022-11-04T09:25:43;0.68;;;0.68;;
11171;SDS011;5642;50.830;12.082;2022-11-04T09:28:10;0.70;;;0.70;;
11171;SDS011;5642;50.830;12.082;2022-11-04T09:30:37;0.68;;;0.68;;
11171;SDS011;5642;50.830;12.082;2022-11-04T09:33:06;0.52;;;0.52;;
11171;SDS011;5642;50.830;12.082;2022-11-04T09:35:32;0.50;;;0.50;;
11171;SDS011;5642;50.830;12.082;2022-11-04T09:37:58;0.70;;;0.70;;
11171;SDS011;5642;50.830;12.082;2022-11-04T09:40:26;0.70;;;0.70;;
11171;SDS011;5642;50.830;12.082;2022-11-04T09:43:12;0.70;;;0.70;;
11171;SDS011;5642;50.830;12.082;2022-11-04T09:45:58;0.50;;;0.50;;
11171;SDS011;5642;50.830;12.082;2022-11-04T09:48:35;0.60;;;0.60;;
11171;SDS011;5642;50.830;12.082;2022-11-04T09:51:05;0.50;;;0.50;;
11171;SDS011;5642;50.830;12.082;2022-11-04T09:53:36;0.60;;;0.60;;
11171;SDS011;5642;50.830;12.082;2022-11-04T09:56:14;0.65;;;0.65;;
11171;SDS011;5642;50.830;12.082;2022-11-04T09:58:41;0.60;;;0.60;;
11171;SDS011;5642;50.830;12.082;2022-11-04T10:01:19;0.50;;;0.50;;
11171;SDS011;5642;50.830;12.082;2022-11-04T10:09:55;0.50;;;0.50;;
11171;SDS011;5642;50.830;12.082;2022-11-04T10:12:53;0.55;;;0.55;;
11171;SDS011;5642;50.830;12.082;2022-11-04T10:16:07;0.95;;;0.60;;
11171;SDS011;5642;50.830;12.082;2022-11-04T10:24:06;0.60;;;0.60;;
11171;SDS011;5642;50.830;12.082;2022-11-04T10:27:02;0.40;;;0.40;;
11171;SDS011;5642;50.830;12.082;2022-11-04T10:29:35;0.40;;;0.40;;
11171;SDS011;5642;50.830;12.082;2022-11-04T10:32:15;0.50;;;0.43;;
11171;SDS011;5642;50.830;12.082;2022-11-04T10:34:48;0.40;;;0.40;;
11171;SDS011;5642;50.830;12.082;2022-11-04T10:37:25;0.40;;;0.40;;
11171;SDS011;5642;50.830;12.082;2022-11-04T10:39:55;0.75;;;0.50;;
11171;SDS011;5642;50.830;12.082;2022-11-04T10:42:30;0.40;;;0.40;;
11171;SDS011;5642;50.830;12.082;2022-11-04T10:44:58;0.30;;;0.30;;
11171;SDS011;5642;50.830;12.082;2022-11-04T10:47:43;0.50;;;0.50;;
11171;SDS011;5642;50.830;12.082;2022-11-04T10:52:48;0.40;;;0.40;;
11171;SDS011;5642;50.830;12.082;2022-11-04T10:58:20;0.47;;;0.45;;
11171;SDS011;5642;50.830;12.082;2022-11-04T11:00:51;0.40;;;0.40;;
11171;SDS011;5642;50.830;12.082;2022-11-04T11:03:23;0.43;;;0.43;;
11171;SDS011;5642;50.830;12.082;2022-11-04T11:06:13;0.40;;;0.40;;
11171;SDS011;5642;50.830;12.082;2022-11-04T11:08:40;0.40;;;0.40;;
11171;SDS011;5642;50.830;12.082;2022-11-04T11:11:07;1.00;;;0.68;;
11171;SDS011;5642;50.830;12.082;2022-11-04T11:13:38;0.40;;;0.40;;
11171;SDS011;5642;50.830;12.082;2022-11-04T11:16:10;0.95;;;0.40;;
11171;SDS011;5642;50.830;12.082;2022-11-04T11:18:42;0.70;;;0.30;;
11171;SDS011;5642;50.830;12.082;2022-11-04T11:23:44;0.43;;;0.43;;
11171;SDS011;5642;50.830;12.082;2022-11-04T11:26:29;0.60;;;0.60;;
11171;SDS011;5642;50.830;12.082;2022-11-04T11:28:57;0.60;;;0.50;;
11171;SDS011;5642;50.830;12.082;2022-11-04T11:31:36;0.50;;;0.50;;
11171;SDS011;5642;50.830;12.082;2022-11-04T11:34:05;0.50;;;0.50;;
11171;SDS011;5642;50.830;12.082;2022-11-04T11:36:58;0.50;;;0.50;;
11171;SDS011;5642;50.830;12.082;2022-11-04T11:39:30;0.32;;;0.32;;
11171;SDS011;5642;50.830;12.082;2022-11-04T11:44:41;0.45;;;0.40;;
11171;SDS011;5642;50.830;12.082;2022-11-04T11:47:19;0.35;;;0.35;;
11171;SDS011;5642;50.830;12.082;2022-11-04T11:50:13;0.63;;;0.50;;
11171;SDS011;5642;50.830;12.082;2022-11-04T11:52:41;0.40;;;0.40;;
11171;SDS011;5642;50.830;12.082;2022-11-04T11:55:20;0.40;;;0.40;;
11171;SDS011;5642;50.830;12.082;2022-11-04T12:00:44;0.82;;;0.40;;
11171;SDS011;5642;50.830;12.082;2022-11-04T12:03:19;0.50;;;0.50;;
11171;SDS011;5642;50.830;12.082;2022-11-04T12:06:02;0.98;;;0.47;;
11171;SDS011;5642;50.830;12.082;2022-11-04T12:08:48;1.40;;;0.50;;
11171;SDS011;5642;50.830;12.082;2022-11-04T12:17:06;1.25;;;0.57;;
11171;SDS011;5642;50.830;12.082;2022-11-04T12:28:09;0.63;;;0.40;;
11171;SDS011;5642;50.830;12.082;2022-11-04T12:30:46;1.08;;;0.60;;
11171;SDS011;5642;50.830;12.082;2022-11-04T12:34:10;0.88;;;0.60;;
11171;SDS011;5642;50.830;12.082;2022-11-04T12:36:39;0.63;;;0.50;;
11171;SDS011;5642;50.830;12.082;2022-11-04T12:39:21;0.40;;;0.40;;
11171;SDS011;5642;50.830;12.082;2022-11-04T12:42:25;0.85;;;0.40;;
11171;SDS011;5642;50.830;12.082;2022-11-04T12:47:34;0.82;;;0.30;;
11171;SDS011;5642;50.830;12.082;2022-11-04T12:50:13;0.45;;;0.45;;
11171;SDS011;5642;50.830;12.082;2022-11-04T13:04:03;0.43;;;0.40;;
11171;SDS011;5642;50.830;12.082;2022-11-04T13:07:21;0.45;;;0.45;;
11171;SDS011;5642;50.830;12.082;2022-11-04T13:09:41;0.40;;;0.30;;
11171;SDS011;5642;50.830;12.082;2022-11-04T13:12:13;0.60;;;0.50;;
11171;SDS011;5642;50.830;12.082;2022-11-04T13:17:22;0.65;;;0.65;;
11171;SDS011;5642;50.830;12.082;2022-11-04T13:19:55;0.77;;;0.47;;
11171;SDS011;5642;50.830;12.082;2022-11-04T13:22:31;0.32;;;0.32;;
11171;SDS011;5642;50.830;12.082;2022-11-04T13:25:03;0.60;;;0.40;;
11171;SDS011;5642;50.830;12.082;2022-11-04T13:27:37;0.45;;;0.43;;
11171;SDS011;5642;50.830;12.082;2022-11-04T13:32:59;0.65;;;0.43;;
11171;SDS011;5642;50.830;12.082;2022-11-04T13:35:36;0.40;;;0.40;;
11171;SDS011;5642;50.830;12.082;2022-11-04T13:38:31;1.25;;;0.60;;
11171;SDS011;5642;50.830;12.082;2022-11-04T13:43:45;0.45;;;0.45;;
11171;SDS011;5642;50.830;12.082;2022-11-04T13:46:17;1.13;;;0.60;;
11171;SDS011;5642;50.830;12.082;2022-11-04T13:51:32;0.40;;;0.38;;
11171;SDS011;5642;50.830;12.082;2022-11-04T13:54:03;1.45;;;0.60;;
11171;SDS011;5642;50.830;12.082;2022-11-04T13:56:31;0.77;;;0.50;;
11171;SDS011;5642;50.830;12.082;2022-11-04T13:59:20;0.60;;;0.60;;
11171;SDS011;5642;50.830;12.082;2022-11-04T14:02:21;0.50;;;0.43;;
11171;SDS011;5642;50.830;12.082;2022-11-04T14:04:37;0.77;;;0.45;;
11171;SDS011;5642;50.830;12.082;2022-11-04T14:07:05;0.30;;;0.30;;
11171;SDS011;5642;50.830;12.082;2022-11-04T14:09:49;0.40;;;0.40;;
11171;SDS011;5642;50.830;12.082;2022-11-04T14:12:25;0.52;;;0.40;;
11171;SDS011;5642;50.830;12.082;2022-11-04T14:15:07;0.50;;;0.50;;
11171;SDS011;5642;50.830;12.082;2022-11-04T14:22:44;0.45;;;0.45;;
11171;SDS011;5642;50.830;12.082;2022-11-04T14:27:54;0.45;;;0.45;;
11171;SDS011;5642;50.830;12.082;2022-11-04T14:33:26;0.55;;;0.55;;
11171;SDS011;5642;50.830;12.082;2022-11-04T14:38:42;0.63;;;0.63;;
11171;SDS011;5642;50.830;12.082;2022-11-04T14:43:54;0.80;;;0.70;;
11171;SDS011;5642;50.830;12.082;2022-11-04T14:46:31;1.52;;;0.80;;
11171;SDS011;5642;50.830;12.082;2022-11-04T14:49:05;1.00;;;0.80;;
11171;SDS011;5642;50.830;12.082;2022-11-04T14:51:38;0.68;;;0.68;;
11171;SDS011;5642;50.830;12.082;2022-11-04T14:54:22;0.80;;;0.80;;
11171;SDS011;5642;50.830;12.082;2022-11-04T14:56:51;0.77;;;0.70;;
11171;SDS011;5642;50.830;12.082;2022-11-04T14:59:21;0.82;;;0.55;;
11171;SDS011;5642;50.830;12.082;2022-11-04T15:01:49;1.17;;;0.70;;
11171;SDS011;5642;50.830;12.082;2022-11-04T15:04:26;1.83;;;0.77;;
11171;SDS011;5642;50.830;12.082;2022-11-04T15:06:54;1.02;;;0.70;;
11171;SDS011;5642;50.830;12.082;2022-11-04T15:09:29;0.65;;;0.65;;
11171;SDS011;5642;50.830;12.082;2022-11-04T15:14:53;0.80;;;0.65;;
11171;SDS011;5642;50.830;12.082;2022-11-04T15:17:21;0.70;;;0.70;;
11171;SDS011;5642;50.830;12.082;2022-11-04T15:19:51;0.77;;;0.70;;
11171;SDS011;5642;50.830;12.082;2022-11-04T15:22:20;0.70;;;0.70;;
11171;SDS011;5642;50.830;12.082;2022-11-04T15:24:47;0.60;;;0.60;;
11171;SDS011;5642;50.830;12.082;2022-11-04T15:27:16;0.70;;;0.63;;
11171;SDS011;5642;50.830;12.082;2022-11-04T15:29:59;0.77;;;0.77;;
11171;SDS011;5642;50.830;12.082;2022-11-04T15:32:27;0.65;;;0.60;;
11171;SDS011;5642;50.830;12.082;2022-11-04T15:34:55;0.85;;;0.65;;
11171;SDS011;5642;50.830;12.082;2022-11-04T15:37:29;0.90;;;0.90;;
11171;SDS011;5642;50.830;12.082;2022-11-04T15:39:56;0.77;;;0.77;;
11171;SDS011;5642;50.830;12.082;2022-11-04T15:42:23;0.90;;;0.80;;
11171;SDS011;5642;50.830;12.082;2022-11-04T15:47:48;1.50;;;1.10;;
11171;SDS011;5642;50.830;12.082;2022-11-04T15:50:34;1.38;;;0.90;;
11171;SDS011;5642;50.830;12.082;2022-11-04T15:53:01;0.93;;;0.93;;
11171;SDS011;5642;50.830;12.082;2022-11-04T15:55:27;2.95;;;1.23;;
11171;SDS011;5642;50.830;12.082;2022-11-04T15:57:58;2.80;;;1.60;;
11171;SDS011;5642;50.830;12.082;2022-11-04T16:00:24;2.08;;;1.88;;
11171;SDS011;5642;50.830;12.082;2022-11-04T16:02:54;4.05;;;3.10;;
11171;SDS011;5642;50.830;12.082;2022-11-04T16:05:33;3.85;;;3.22;;
11171;SDS011;5642;50.830;12.082;2022-11-04T16:08:20;3.83;;;3.08;;
11171;SDS011;5642;50.830;12.082;2022-11-04T16:10:47;3.38;;;3.00;;
11171;SDS011;5642;50.830;12.082;2022-11-04T16:21:00;2.75;;;2.15;;
11171;SDS011;5642;50.830;12.082;2022-11-04T16:23:31;2.33;;;2.13;;
11171;SDS011;5642;50.830;12.082;2022-11-04T16:26:03;2.70;;;2.22;;
11171;SDS011;5642;50.830;12.082;2022-11-04T16:28:33;2.55;;;2.20;;
11171;SDS011;5642;50.830;12.082;2022-11-04T16:31:06;2.60;;;2.20;;
11171;SDS011;5642;50.830;12.082;2022-11-04T16:33:47;2.72;;;2.47;;
11171;SDS011;5642;50.830;12.082;2022-11-04T16:36:15;3.63;;;2.20;;
11171;SDS011;5642;50.830;12.082;2022-11-04T16:38:56;2.53;;;2.20;;
11171;SDS011;5642;50.830;12.082;2022-11-04T16:41:31;3.35;;;2.25;;
11171;SDS011;5642;50.830;12.082;2022-11-04T16:44:02;3.25;;;2.60;;
11171;SDS011;5642;50.830;12.082;2022-11-04T16:46:33;2.83;;;2.38;;
11171;SDS011;5642;50.830;12.082;2022-11-04T16:48:59;2.80;;;2.50;;
11171;SDS011;5642;50.830;12.082;2022-11-04T16:51:27;2.40;;;2.20;;
11171;SDS011;5642;50.830;12.082;2022-11-04T16:53:53;2.88;;;2.17;;
11171;SDS011;5642;50.830;12.082;2022-11-04T16:56:23;2.75;;;2.05;;
11171;SDS011;5642;50.830;12.082;2022-11-04T16:58:51;3.95;;;2.65;;
11171;SDS011;5642;50.830;12.082;2022-11-04T17:01:17;4.63;;;2.88;;
11171;SDS011;5642;50.830;12.082;2022-11-04T17:03:45;5.40;;;3.40;;
11171;SDS011;5642;50.830;12.082;2022-11-04T17:06:12;4.13;;;2.95;;
11171;SDS011;5642;50.830;12.082;2022-11-04T17:08:42;3.50;;;2.78;;
11171;SDS011;5642;50.830;12.082;2022-11-04T17:11:13;4.18;;;3.30;;
11171;SDS011;5642;50.830;12.082;2022-11-04T17:13:41;5.70;;;4.25;;
11171;SDS011;5642;50.830;12.082;2022-11-04T17:16:10;7.20;;;4.80;;
11171;SDS011;5642;50.830;12.082;2022-11-04T17:18:39;8.00;;;5.15;;
11171;SDS011;5642;50.830;12.082;2022-11-04T17:21:07;8.57;;;5.50;;
11171;SDS011;5642;50.830;12.082;2022-11-04T17:23:38;7.38;;;4.82;;
11171;SDS011;5642;50.830;12.082;2022-11-04T17:26:05;5.90;;;4.03;;
11171;SDS011;5642;50.830;12.082;2022-11-04T17:28:37;4.88;;;3.60;;
11171;SDS011;5642;50.830;12.082;2022-11-04T17:31:03;5.50;;;4.07;;
11171;SDS011;5642;50.830;12.082;2022-11-04T17:33:30;5.88;;;4.35;;